• Join FlightAware (Why Join?)
  • Login
  • US Flag 
 
09:54PM EST


 

Airport Tracker/Info


-or-


 

Live Flight TrackerFlight Track Log ✈ AMX409 ✈ 19-Jul-2013 ✈ KJFK - MMMX / MEX

Flight Track Log - Related Links

Times and Time Zones

All times are in EDT time to prevent confusion due to time zone crossing. See the AMX409 flight status page for this flight to view local times or setup timezone preferences in your user account.

Time Position Orientation Groundspeed Altitude Reporting Facility
EDT Latitude Longitude Course Direction KTS MPH feet Rate Location/Type
03:30PM 40.6000 -73.7667 180° South 176 203 2,200  Level New York TRACON
03:31PM 40.5500 -73.7667 180° South 252 290 4,500 3,300 Climbing New York TRACON
03:32PM 40.5167 -73.8333 237° Southwest 267 307 8,800 3,000 Climbing New York TRACON
03:33PM 40.4833 -73.9333 246° West 279 321 10,900 1,140 Climbing New York TRACON
03:34PM 40.4500 -74.0000 237° Southwest 276 318 11,000 540 Climbing New York TRACON
03:35PM 40.3833 -74.1000 229° Southwest 282 325 12,000 960 Climbing New York TRACON
03:36PM 40.3333 -74.1667 225° Southwest 316 364 13,100 1,320 Climbing New York TRACON
03:38PM 40.2369 -74.4008 242° Southwest 369 425 16,200 1,260 Climbing New York Center
03:39PM 40.2036 -74.5375 252° West 369 425 17,300 2,100 Climbing New York Center
03:40PM 40.2450 -74.6731 292° West 368 423 20,500 2,820 Climbing New York Center
03:41PM 40.2800 -74.8083 289° West 380 437 22,900 2,280 Climbing New York Center
03:42PM 40.2478 -74.9561 254° West 391 450 25,000 2,040 Climbing New York Center
03:43PM 40.2047 -75.1111 250° West 420 483 27,100 2,280 Climbing New York Center
03:44PM 40.1611 -75.2686 250° West 442 509 29,700 2,460 Climbing New York Center
03:45PM 40.1117 -75.4147 246° West 455 524 32,100 2,460 Climbing New York Center
03:46PM 40.0236 -75.5336 226° Southwest 449 517 34,600 2,100 Climbing New York Center
03:47PM 39.9397 -75.6469 226° Southwest 449 517 36,300 1,380 Climbing New York Center
03:48PM 39.8639 -75.7633 230° Southwest 443 510 37,500 780 Climbing New York Center
03:49PM 39.8081 -75.8514 230° Southwest 449 517 37,900 240 Climbing New York Center
03:50PM 39.7206 -75.9936 231° Southwest 444 511 38,000  Climbing New York Center
03:51PM 39.6444 -76.1119 230° Southwest 439 505 38,000  Level New York Center
03:52PM 39.5661 -76.2375 231° Southwest 433 498 38,000  Level Washington Center
03:53PM 39.4883 -76.3553 229° Southwest 418 481 38,000  Level Washington Center
03:54PM 39.4125 -76.4753 231° Southwest 423 487 38,000  Level Washington Center
03:55PM 39.3344 -76.5950 230° Southwest 434 499 38,000  Level Washington Center
03:56PM 39.2561 -76.7147 230° Southwest 434 499 38,000  Level Washington Center
03:57PM 39.1822 -76.8339 231° Southwest 434 499 38,000  Level Washington Center
03:58PM 39.1122 -76.9372 229° Southwest 434 499 38,000  Level Washington Center
03:59PM 39.0381 -77.0428 228° Southwest 434 499 38,000  Level Washington Center
04:00PM 38.9428 -77.1636 225° Southwest 434 499 38,000  Level Washington Center
04:01PM 38.8578 -77.2792 227° Southwest 444 511 38,000  Level Washington Center
04:02PM 38.7708 -77.3889 225° Southwest 444 511 38,000  Level Washington Center
04:03PM 38.6836 -77.5011 225° Southwest 449 517 38,000  Level Washington Center
04:04PM 38.5983 -77.6158 226° Southwest 449 517 38,000  Level Washington Center
04:05PM 38.5108 -77.7303 226° Southwest 449 517 38,000  Level Washington Center
04:06PM 38.4253 -77.8417 226° Southwest 449 517 38,000  Level Washington Center
04:07PM 38.3397 -77.9531 226° Southwest 449 517 38,000  Level Washington Center
04:08PM 38.2519 -78.0639 225° Southwest 449 517 38,000  Level Washington Center
04:09PM 38.1664 -78.1747 226° Southwest 449 517 38,000  Level Washington Center
04:10PM 38.0783 -78.2878 225° Southwest 449 517 38,000  Level Washington Center
04:11PM 37.9858 -78.4056 225° Southwest 444 511 38,000  Level Washington Center
04:12PM 37.8978 -78.5181 225° Southwest 444 511 38,000  Level Washington Center
04:13PM 37.8161 -78.6175 224° Southwest 450 518 38,000  Level Washington Center
04:14PM 37.7278 -78.7294 225° Southwest 450 518 38,000  Level Washington Center
04:15PM 37.6369 -78.8411 224° Southwest 450 518 38,000  Level Washington Center
04:16PM 37.5464 -78.9550 225° Southwest 450 518 38,000  Level Washington Center
04:17PM 37.4425 -79.0786 223° Southwest 455 524 38,000  Level Washington Center
04:18PM 37.3475 -79.1892 223° Southwest 455 524 38,000  Level Washington Center
04:19PM 37.2564 -79.3050 225° Southwest 460 529 38,000  Level Washington Center
04:20PM 37.1631 -79.4203 225° Southwest 465 535 38,000  Level Washington Center
04:21PM 37.0717 -79.5356 225° Southwest 472 543 38,000  Level Washington Center
04:22PM 36.9847 -79.6403 224° Southwest 472 543 38,000  Level Washington Center
04:23PM 36.8953 -79.7525 225° Southwest 472 543 38,000  Level Washington Center
04:24PM 36.7444 -79.9275 223° Southwest 477 549 38,000  Level Atlanta Center
04:25PM 36.6642 -80.0275 225° Southwest 467 537 38,000  Level Atlanta Center
04:26PM 36.5719 -80.1381 224° Southwest 462 532 38,000  Level Atlanta Center
04:27PM 36.4772 -80.2458 222° Southwest 462 532 38,000  Level Atlanta Center
04:28PM 36.3889 -80.3533 224° Southwest 462 532 38,000  Level Atlanta Center
04:29PM 36.2900 -80.4711 224° Southwest 462 532 38,000  Level Atlanta Center
04:30PM 36.1953 -80.5808 223° Southwest 462 532 38,000  Level Atlanta Center
04:31PM 36.1086 -80.6900 226° Southwest 457 526 38,000  Level Atlanta Center
04:32PM 36.0133 -80.7967 222° Southwest 464 534 38,000  Level Atlanta Center
04:33PM 35.9225 -80.9078 225° Southwest 464 534 38,000  Level Atlanta Center
04:34PM 35.8269 -81.0167 223° Southwest 469 540 38,000  Level Atlanta Center
04:35PM 35.7336 -81.1250 223° Southwest 464 534 38,000  Level Atlanta Center
04:36PM 35.6322 -81.2408 223° Southwest 474 545 38,000  Level Atlanta Center
04:37PM 35.5364 -81.3489 223° Southwest 479 551 38,000  Level Atlanta Center
04:38PM 35.4389 -81.4667 225° Southwest 491 565 38,000  Level Atlanta Center
04:39PM 35.3431 -81.5767 223° Southwest 486 559 38,000  Level Atlanta Center
04:40PM 35.2450 -81.6864 222° Southwest 486 559 38,000  Level Atlanta Center
04:41PM 35.1492 -81.7958 223° Southwest 486 559 38,000  Level Atlanta Center
04:42PM 35.0508 -81.9075 223° Southwest 486 559 38,000  Level Atlanta Center
04:43PM 34.9694 -82.0314 231° Southwest 482 555 38,000  Level Atlanta Center
04:44PM 34.8942 -82.1572 234° Southwest 475 547 38,000  Level Atlanta Center
04:45PM 34.8169 -82.2856 234° Southwest 469 540 38,000  Level Atlanta Center
04:46PM 34.7456 -82.4008 233° Southwest 476 548 38,000  Level Atlanta Center
04:47PM 34.6656 -82.5261 232° Southwest 476 548 38,000  Level Atlanta Center
04:48PM 34.5756 -82.6639 232° Southwest 481 554 38,000  Level Atlanta Center
04:49PM 34.4956 -82.7961 234° Southwest 481 554 38,000  Level Atlanta Center
04:50PM 34.4194 -82.9208 234° Southwest 475 547 38,000  Level Atlanta Center
04:51PM 34.3411 -83.0475 233° Southwest 480 552 38,000  Level Atlanta Center
04:52PM 34.2628 -83.1767 234° Southwest 480 552 38,000  Level Atlanta Center
04:53PM 34.1864 -83.3006 233° Southwest 480 552 38,000  Level Atlanta Center
04:54PM 34.1058 -83.4267 232° Southwest 480 552 38,000  Level Atlanta Center
04:55PM 34.0353 -83.5425 234° Southwest 480 552 38,000  Level Atlanta Center
04:56PM 33.9544 -83.6681 232° Southwest 480 552 38,000  Level Atlanta Center
04:57PM 33.8753 -83.7936 233° Southwest 480 552 38,000  Level Atlanta Center
04:58PM 33.7964 -83.9189 233° Southwest 480 552 38,000  Level Atlanta Center
04:59PM 33.7150 -84.0439 232° Southwest 480 552 38,000  Level Atlanta Center
05:00PM 33.6292 -84.1836 234° Southwest 480 552 38,000  Level Atlanta Center
05:01PM 33.5478 -84.3081 232° Southwest 481 554 38,000  Level Atlanta Center
05:02PM 33.4681 -84.4322 232° Southwest 481 554 38,000  Level Atlanta Center
05:03PM 33.3925 -84.5564 234° Southwest 481 554 38,000  Level Atlanta Center
05:04PM 33.3147 -84.6753 232° Southwest 473 544 38,000  Level Atlanta Center
05:05PM 33.2389 -84.7939 233° Southwest 463 533 38,000  Level Atlanta Center
05:06PM 33.1692 -84.9025 233° Southwest 457 526 38,000  Level Atlanta Center
05:07PM 33.0953 -85.0158 232° Southwest 452 520 38,000  Level Atlanta Center
05:08PM 33.0192 -85.1314 232° Southwest 452 520 38,000  Level Atlanta Center
05:09PM 32.9472 -85.2419 232° Southwest 441 507 38,000  Level Atlanta Center
05:10PM 32.8731 -85.3547 232° Southwest 441 507 38,000  Level Atlanta Center
05:11PM 32.7967 -85.4647 230° Southwest 441 507 38,000  Level Atlanta Center
05:12PM 32.7222 -85.5769 232° Southwest 441 507 38,000  Level Atlanta Center
05:13PM 32.6456 -85.6892 231° Southwest 441 507 38,000  Level Atlanta Center
05:14PM 32.5689 -85.8036 232° Southwest 441 507 38,000  Level Atlanta Center
05:15PM 32.4814 -85.9322 231° Southwest 448 516 38,000  Level Atlanta Center
05:16PM 32.4044 -86.0464 231° Southwest 448 516 38,000  Level Atlanta Center
05:17PM 32.3339 -86.1553 233° Southwest 434 499 38,000  Level Atlanta Center
05:18PM 32.2631 -86.2642 232° Southwest 434 499 38,000  Level Atlanta Center
05:19PM 32.1858 -86.3800 232° Southwest 449 517 38,000  Level Atlanta Center
05:20PM 32.1214 -86.4717 230° Southwest 439 505 38,000  Level Atlanta Center
05:21PM 32.0461 -86.5797 231° Southwest 434 499 38,000  Level Atlanta Center
05:22PM 31.9561 -86.6947 227° Southwest 434 499 38,000  Level Atlanta Center
05:23PM 31.8808 -86.7978 229° Southwest 441 507 38,000  Level Atlanta Center
05:24PM 31.8053 -86.9006 229° Southwest 428 493 38,000  Level Atlanta Center
05:25PM 31.7319 -87.0006 229° Southwest 422 486 38,000  Level Atlanta Center
05:26PM 31.6714 -87.0889 231° Southwest 414 476 38,000  Level Atlanta Center
05:27PM 31.5958 -87.1936 230° Southwest 416 479 38,000  Level Atlanta Center
05:28PM 31.5156 -87.2967 228° Southwest 429 494 38,000  Level Houston Center
05:29PM 31.4394 -87.4050 231° Southwest 432 497 38,000  Level Houston Center
05:30PM 31.3614 -87.5119 229° Southwest 433 498 38,000  Level Houston Center
05:31PM 31.2825 -87.6208 230° Southwest 439 505 38,000  Level Houston Center
05:32PM 31.1919 -87.7408 229° Southwest 443 510 38,000  Level Houston Center
05:33PM 31.1103 -87.8503 229° Southwest 447 514 38,000  Level Houston Center
05:35PM 31.0278 -87.9586 228° Southwest 448 516 38,000  Level Houston Center
05:36PM 30.9278 -88.0883 228° Southwest 454 522 38,000  Level Houston Center
05:37PM 30.8464 -88.1986 229° Southwest 449 517 38,000  Level Houston Center
05:38PM 30.7647 -88.3061 229° Southwest 445 512 38,000  Level Houston Center
05:39PM 30.6981 -88.4200 236° Southwest 447 514 38,000  Level Houston Center
05:40PM 30.6450 -88.5514 245° Southwest 449 517 38,000  Level Houston Center
05:41PM 30.5811 -88.7081 245° Southwest 449 517 38,000  Level Houston Center
05:42PM 30.5253 -88.8386 244° Southwest 451 519 38,000 -60 Level Houston Center
05:43PM 30.4686 -88.9747 244° Southwest 456 525 37,900 -60 Descending Houston Center
05:44PM 30.4122 -89.1047 243° Southwest 453 521 37,900  Level Houston Center
05:45PM 30.3569 -89.2350 244° Southwest 451 519 38,000  Climbing Houston Center
05:46PM 30.3025 -89.3631 244° Southwest 445 512 38,000  Level Houston Center
05:47PM 30.2456 -89.4914 243° Southwest 445 512 38,000  Level Houston Center
05:48PM 30.1769 -89.6467 243° Southwest 446 513 38,000  Level Houston Center
05:49PM 30.1167 -89.7764 242° Southwest 450 518 38,000  Level Houston Center
05:50PM 30.0419 -89.8917 233° Southwest 444 511 38,000 -60 Level Houston Center
05:51PM 29.9678 -90.0056 233° Southwest 443 510 37,900  Descending Houston Center
05:52PM 29.8936 -90.1181 233° Southwest 441 507 38,000  Climbing Houston Center
05:53PM 29.8178 -90.2292 232° Southwest 440 506 37,900  Descending Houston Center
05:54PM 29.7239 -90.3164 219° Southwest 433 498 38,000  Climbing Houston Center
05:55PM 29.6067 -90.4136 216° Southwest 433 498 38,000 -60 Level Houston Center
05:56PM 29.5233 -90.5117 226° Southwest 440 506 37,900  Descending Houston Center
05:57PM 29.4736 -90.6397 246° West 441 507 38,000  Climbing Houston Center
05:58PM 29.4353 -90.7753 252° West 446 513 38,000  Level Houston Center
05:59PM 29.3739 -90.8967 240° Southwest 449 517 38,000 -60 Level Houston Center
06:00PM 29.2981 -91.0064 232° Southwest 439 505 37,900  Descending Houston Center
06:01PM 29.2222 -91.1183 228° Southwest 443 510 38,000  Climbing Houston Center
06:02PM 29.2082 -91.1212 228° Southwest  Level FlightAware Approximate
06:02PM 29.1314 -91.2531 232° Southwest 444 511 38,000  Level Houston Center
06:03PM 29.0558 -91.3656 232° Southwest 446 513 38,000  Level Houston Center
06:05PM 28.9786 -91.4783 232° Southwest 449 517 38,000  Level Houston Center
06:06PM 28.8997 -91.5900 231° Southwest 452 520 38,000  Level Houston Center
06:08PM 28.7433 -91.8178 232° Southwest 457 526 38,000 120 Level Houston Center
06:11PM 28.4875 -92.1878 232° Southwest 467 537 38,900 480 Climbing Houston Center
06:12PM 28.4067 -92.3028 231° Southwest 467 537 40,000 480 Climbing Houston Center
06:13PM 28.3269 -92.4164 231° Southwest 462 532 39,900  Descending Houston Center
06:14PM 28.2475 -92.5294 231° Southwest 459 528 40,000  Climbing Houston Center
06:15PM 28.1578 -92.6375 227° Southwest 469 540 40,000  Level Houston Center
06:16PM 28.0361 -92.7481 219° Southwest 476 548 40,000  Level Houston Center
06:17PM 27.9233 -92.8261 211° Southwest 476 548 40,000  Level Houston Center
06:19PM 27.7540 -92.9407 211° Southwest  Level FlightAware Approximate
06:26PM 27.0297 -93.4322 212° Southwest  Level FlightAware Approximate
06:27PM 26.9268 -93.5033 212° Southwest  Level FlightAware Approximate
06:28PM 26.8234 -93.5734 211° Southwest  Level FlightAware Approximate
06:29PM 26.7197 -93.6427 211° Southwest  Level FlightAware Approximate
06:30PM 26.6158 -93.7118 211° Southwest  Level FlightAware Approximate
06:31PM 26.5123 -93.7814 212° Southwest  Level FlightAware Approximate
06:32PM 26.4099 -93.8531 212° Southwest  Level FlightAware Approximate
06:33PM 26.3068 -93.9234 211° Southwest  Level FlightAware Approximate
06:34PM 26.2032 -93.9927 211° Southwest  Level FlightAware Approximate
06:35PM 26.0996 -94.0618 211° Southwest  Level FlightAware Approximate
06:36PM 25.9959 -94.1309 211° Southwest  Level FlightAware Approximate
06:37PM 25.8921 -94.1998 211° Southwest  Level FlightAware Approximate
06:38PM 25.7886 -94.2690 211° Southwest  Level FlightAware Approximate
06:39PM 25.6851 -94.3382 211° Southwest  Level FlightAware Approximate
06:40PM 25.5816 -94.4072 211° Southwest  Level FlightAware Approximate
06:41PM 25.4780 -94.4762 211° Southwest  Level FlightAware Approximate
06:42PM 25.3744 -94.5450 211° Southwest  Level FlightAware Approximate
06:43PM 25.2702 -94.6127 210° Southwest  Level FlightAware Approximate
06:44PM 25.1653 -94.6789 210° Southwest  Level FlightAware Approximate
06:45PM 25.0603 -94.7450 210° Southwest  Level FlightAware Approximate
06:46PM 24.9553 -94.8109 210° Southwest  Level FlightAware Approximate
06:47PM 24.8503 -94.8768 210° Southwest  Level FlightAware Approximate
06:48PM 24.7453 -94.9425 210° Southwest  Level FlightAware Approximate
06:49PM 24.6402 -95.0082 210° Southwest  Level FlightAware Approximate
06:50PM 24.5351 -95.0737 210° Southwest  Level FlightAware Approximate
06:51PM 24.4299 -95.1391 210° Southwest  Level FlightAware Approximate
06:52PM 24.3248 -95.2044 210° Southwest  Level FlightAware Approximate
06:53PM 24.2196 -95.2696 209° Southwest  Level FlightAware Approximate
06:54PM 24.1144 -95.3347 209° Southwest  Level FlightAware Approximate
06:55PM 24.0091 -95.3997 209° Southwest  Level FlightAware Approximate
06:56PM 23.9039 -95.4646 209° Southwest  Level FlightAware Approximate
06:57PM 23.7985 -95.5294 209° Southwest  Level FlightAware Approximate
06:58PM 23.6932 -95.5940 209° Southwest  Level FlightAware Approximate
06:59PM 23.5879 -95.6586 209° Southwest  Level FlightAware Approximate
07:00PM 23.4825 -95.7231 209° Southwest  Level FlightAware Approximate
07:01PM 23.3771 -95.7874 209° Southwest  Level FlightAware Approximate
07:02PM 23.2717 -95.8517 209° Southwest  Level FlightAware Approximate
07:03PM 23.1662 -95.9158 209° Southwest  Level FlightAware Approximate
07:04PM 23.0607 -95.9799 209° Southwest  Level FlightAware Approximate
07:05PM 22.9554 -96.0442 210° Southwest  Level FlightAware Approximate
07:06PM 22.8503 -96.1089 210° Southwest  Level FlightAware Approximate
07:07PM 22.7449 -96.1731 209° Southwest  Level FlightAware Approximate
07:08PM 22.6393 -96.2366 209° Southwest  Level FlightAware Approximate
07:09PM 22.5336 -96.3000 209° Southwest  Level FlightAware Approximate
07:10PM 22.4279 -96.3634 209° Southwest  Level FlightAware Approximate
07:11PM 22.3221 -96.4264 209° Southwest  Level FlightAware Approximate
07:12PM 22.2161 -96.4891 209° Southwest  Level FlightAware Approximate
07:13PM 22.1101 -96.5517 209° Southwest  Level FlightAware Approximate
07:14PM 22.0040 -96.6142 209° Southwest  Level FlightAware Approximate
07:15PM 21.8980 -96.6766 209° Southwest  Level FlightAware Approximate
07:16PM 21.7919 -96.7389 209° Southwest  Level FlightAware Approximate
07:17PM 21.6858 -96.8011 209° Southwest  Level FlightAware Approximate
07:18PM 21.5797 -96.8632 209° Southwest  Level FlightAware Approximate
07:19PM 21.4735 -96.9252 209° Southwest  Level FlightAware Approximate
07:20PM 21.3673 -96.9872 209° Southwest  Level FlightAware Approximate
07:21PM 21.2620 -97.0506 210° Southwest  Level FlightAware Approximate
07:22PM 21.1574 -97.1154 210° Southwest  Level FlightAware Approximate
07:23PM 21.0527 -97.1802 210° Southwest  Level FlightAware Approximate
07:24PM 20.9477 -97.2440 208° Southwest  Level FlightAware Approximate
07:25PM 20.8407 -97.3043 208° Southwest  Level FlightAware Approximate
07:26PM 20.7338 -97.3644 208° Southwest  Level FlightAware Approximate
07:27PM 20.6299 -97.4301 212° Southwest  Level FlightAware Approximate
07:28PM 20.5457 -97.5207 231° Southwest  Level FlightAware Approximate
07:29PM 20.4690 -97.6204 231° Southwest  Level FlightAware Approximate
07:30PM 20.3935 -97.7210 232° Southwest  Level FlightAware Approximate
07:31PM 20.3191 -97.8226 232° Southwest  Level FlightAware Approximate
07:32PM 20.2447 -97.9241 233° Southwest  Level FlightAware Approximate
07:33PM 20.1717 -98.0266 233° Southwest  Level FlightAware Approximate
07:34PM 20.0986 -98.1291 233° Southwest  Level FlightAware Approximate
07:35PM 20.0254 -98.2315 233° Southwest  Level FlightAware Approximate
07:36PM 19.9522 -98.3337 233° Southwest  Level FlightAware Approximate
07:37PM 19.8779 -98.4351 231° Southwest  Level FlightAware Approximate
07:38PM 19.8124 -98.5392 232° Southwest  Level FlightAware Approximate
07:39PM 19.7386 -98.6408 232° Southwest  Level FlightAware Approximate
07:40PM 19.6643 -98.7420 231° Southwest  Level FlightAware Approximate
07:41PM 19.5891 -98.8424 231° Southwest  Level FlightAware Approximate
07:42PM 19.5164 -98.9393 232° Southwest  Level FlightAware Approximate
07:43PM 19.4395 -99.0381 230° Southwest  Level FlightAware Approximate
07:44PM 19.4167 -99.0667 230° Southwest  Level FlightAware Approximate
07:45PM 19.4363 -99.0721 230° Southwest  Level Estimated
07:46PM 19.4363 -99.0721 230° Southwest  Level Estimated
07:47PM 19.4363 -99.0721 230° Southwest  Level Estimated
07:48PM 19.4363 -99.0721 230° Southwest  Level Estimated
07:49PM 19.4363 -99.0721 230° Southwest  Level Estimated
07:50PM 19.4363 -99.0721 230° Southwest  Level Estimated
07:51PM 19.4363 -99.0721 230° Southwest  Level Estimated
07:52PM 19.4363 -99.0721 230° Southwest  Level Estimated
07:53PM 19.4363 -99.0721 230° Southwest  Level Estimated
07:54PM 19.4363 -99.0721 230° Southwest  Level Estimated
07:55PM 19.4363 -99.0721 230° Southwest  Level Estimated
07:56PM 19.4363 -99.0721 230° Southwest  Level Estimated
07:57PM 19.4363 -99.0721 230° Southwest  Level Estimated
07:58PM 19.4363 -99.0721 230° Southwest  Level Estimated
07:59PM 19.4363 -99.0721 230° Southwest  Level Estimated
08:00PM 19.4363 -99.0721 230° Southwest  Level Estimated
08:01PM 19.4363 -99.0721 230° Southwest  Level Estimated